createdAt,value
2022-11-06T00:02:07.916Z,8.68
2022-11-06T00:04:53.790Z,8.67
2022-11-06T00:07:39.262Z,8.66
2022-11-06T00:10:24.981Z,8.68
2022-11-06T00:13:10.253Z,8.61
2022-11-06T00:15:55.548Z,8.62
2022-11-06T00:18:41.905Z,8.59
2022-11-06T00:21:29.019Z,8.59
2022-11-06T00:24:15.992Z,8.57
2022-11-06T00:27:01.528Z,8.54
2022-11-06T00:29:46.794Z,8.56
2022-11-06T00:32:32.313Z,8.54
2022-11-06T00:35:17.803Z,8.55
2022-11-06T00:38:03.120Z,8.68
2022-11-06T00:40:48.465Z,8.77
2022-11-06T00:43:35.848Z,8.77
2022-11-06T00:46:21.550Z,8.70
2022-11-06T00:49:06.980Z,8.64
2022-11-06T00:51:52.626Z,8.58
2022-11-06T00:54:38.051Z,8.52
2022-11-06T00:57:23.415Z,8.51
2022-11-06T01:00:11.310Z,8.47
2022-11-06T01:02:57.420Z,8.49
2022-11-06T01:05:43.026Z,8.47
2022-11-06T01:08:28.586Z,8.46
2022-11-06T01:11:16.906Z,8.54
2022-11-06T01:14:04.597Z,8.52
2022-11-06T01:16:50.957Z,8.56
2022-11-06T01:19:36.291Z,8.54
2022-11-06T01:22:21.625Z,8.54
2022-11-06T01:25:07.978Z,8.44
2022-11-06T01:27:53.173Z,8.36
2022-11-06T01:30:38.636Z,8.26
2022-11-06T01:33:23.985Z,8.14
2022-11-06T01:36:11.060Z,8.00
2022-11-06T01:38:59.668Z,7.94
2022-11-06T01:41:47.923Z,7.86
2022-11-06T01:44:36.188Z,7.80
2022-11-06T01:47:28.554Z,7.79
2022-11-06T01:50:15.898Z,7.64
2022-11-06T01:53:02.620Z,7.57
2022-11-06T01:55:52.398Z,7.57
2022-11-06T01:58:40.866Z,7.61
2022-11-06T02:01:31.297Z,7.60
2022-11-06T02:04:28.525Z,7.49
2022-11-06T02:07:14.573Z,7.47
2022-11-06T02:10:02.048Z,7.51
2022-11-06T02:13:11.608Z,7.51
2022-11-06T02:16:48.136Z,7.55
2022-11-06T02:19:57.612Z,7.74
2022-11-06T02:23:07.066Z,7.94
2022-11-06T02:26:07.592Z,8.12
2022-11-06T02:29:10.497Z,8.27
2022-11-06T02:31:58.997Z,8.39
2022-11-06T02:34:46.571Z,8.48
2022-11-06T02:37:37.204Z,8.62
2022-11-06T02:40:29.300Z,8.74
2022-11-06T02:43:16.383Z,8.83
2022-11-06T02:46:09.286Z,8.91
2022-11-06T02:49:04.953Z,9.20
2022-11-06T02:51:57.011Z,9.25
2022-11-06T02:54:45.113Z,9.29
2022-11-06T02:57:35.819Z,9.29
2022-11-06T03:00:22.320Z,9.31
2022-11-06T03:03:17.228Z,9.35
2022-11-06T03:06:29.908Z,9.37
2022-11-06T03:09:25.757Z,9.39
2022-11-06T03:12:23.270Z,9.42
2022-11-06T03:15:26.952Z,9.50
2022-11-06T03:18:43.237Z,9.52
2022-11-06T03:21:34.957Z,9.54
2022-11-06T03:24:41.827Z,9.54
2022-11-06T03:27:40.612Z,9.55
2022-11-06T03:30:26.722Z,9.55
2022-11-06T03:33:18.459Z,9.55
2022-11-06T03:36:08.955Z,9.56
2022-11-06T03:39:01.204Z,9.49
2022-11-06T03:42:06.787Z,9.36
2022-11-06T03:44:57.689Z,9.29
2022-11-06T03:47:49.500Z,9.21
2022-11-06T03:50:43.205Z,9.13
2022-11-06T03:53:35.217Z,9.19
2022-11-06T03:56:24.044Z,9.21
2022-11-06T03:59:11.850Z,9.27
2022-11-06T04:02:00.298Z,9.36
2022-11-06T04:04:51.410Z,9.49
2022-11-06T04:07:42.437Z,9.60
2022-11-06T04:10:46.537Z,9.63
2022-11-06T04:13:52.629Z,9.65
2022-11-06T04:16:41.454Z,9.66
2022-11-06T04:19:27.100Z,9.66
2022-11-06T04:22:41.040Z,9.67
2022-11-06T04:26:03.758Z,9.68
2022-11-06T04:29:32.650Z,9.65
2022-11-06T04:32:35.752Z,9.65
2022-11-06T04:35:48.435Z,9.56
2022-11-06T04:38:43.108Z,9.76
2022-11-06T04:41:38.884Z,9.77
2022-11-06T04:44:31.360Z,9.70
2022-11-06T04:47:21.017Z,9.71
2022-11-06T04:50:09.828Z,9.73
2022-11-06T04:52:57.555Z,9.84
2022-11-06T04:55:52.411Z,9.88
2022-11-06T04:58:38.632Z,9.87
2022-11-06T05:01:24.072Z,9.90
2022-11-06T05:04:10.911Z,9.87
2022-11-06T05:06:56.522Z,9.76
2022-11-06T05:09:42.562Z,9.65
2022-11-06T05:12:28.299Z,9.52
2022-11-06T05:15:13.589Z,9.37
2022-11-06T05:17:59.104Z,9.31
2022-11-06T05:20:44.406Z,9.20
2022-11-06T05:23:29.761Z,9.20
2022-11-06T05:26:15.145Z,9.08
2022-11-06T05:29:00.692Z,9.03
2022-11-06T05:31:45.906Z,8.96
2022-11-06T05:34:31.225Z,8.91
2022-11-06T05:37:16.665Z,8.82
2022-11-06T05:40:02.061Z,8.83
2022-11-06T05:42:47.405Z,8.76
2022-11-06T05:45:32.963Z,8.71
2022-11-06T05:48:18.581Z,8.69
2022-11-06T05:51:06.106Z,8.66
2022-11-06T05:53:51.475Z,8.67
2022-11-06T05:56:36.978Z,8.68
2022-11-06T05:59:22.154Z,8.67
2022-11-06T06:02:08.129Z,8.68
2022-11-06T06:04:53.862Z,8.66
2022-11-06T06:07:39.349Z,8.61
2022-11-06T06:10:24.756Z,8.63
2022-11-06T06:13:10.723Z,8.65
2022-11-06T06:16:02.683Z,8.64
2022-11-06T06:18:51.387Z,8.67
2022-11-06T06:21:37.180Z,8.66
2022-11-06T06:24:22.733Z,8.58
2022-11-06T06:27:08.194Z,8.51
2022-11-06T06:29:54.415Z,8.38
2022-11-06T06:32:39.943Z,8.33
2022-11-06T06:35:25.292Z,8.43
2022-11-06T06:38:11.501Z,8.45
2022-11-06T06:41:02.072Z,8.44
2022-11-06T06:43:49.509Z,8.50
2022-11-06T06:46:34.932Z,8.47
2022-11-06T06:49:20.406Z,8.41
2022-11-06T06:52:05.827Z,8.30
2022-11-06T06:54:51.352Z,8.25
2022-11-06T06:57:36.590Z,8.40
2022-11-06T07:00:21.890Z,8.48
2022-11-06T07:03:07.413Z,8.51
2022-11-06T07:05:52.688Z,8.38
2022-11-06T07:08:38.620Z,8.25
2022-11-06T07:11:23.993Z,8.01
2022-11-06T07:14:11.056Z,7.85
2022-11-06T07:16:56.671Z,7.80
2022-11-06T07:19:42.046Z,7.69
2022-11-06T07:22:35.455Z,7.54
2022-11-06T07:25:22.512Z,7.47
2022-11-06T07:28:08.959Z,7.36
2022-11-06T07:30:59.710Z,7.29
2022-11-06T07:33:45.270Z,7.26
2022-11-06T07:36:31.857Z,7.22
2022-11-06T07:39:17.487Z,7.37
2022-11-06T07:42:02.844Z,7.44
2022-11-06T07:44:55.628Z,7.49
2022-11-06T07:47:41.329Z,7.53
2022-11-06T07:50:27.639Z,7.46
2022-11-06T07:53:13.449Z,7.52
2022-11-06T07:55:59.644Z,7.52
2022-11-06T07:58:45.064Z,7.65
2022-11-06T08:01:30.797Z,7.70
2022-11-06T08:04:16.268Z,7.85
2022-11-06T08:07:01.604Z,7.96
2022-11-06T08:09:46.986Z,8.05
2022-11-06T08:12:32.426Z,8.00
2022-11-06T08:15:17.768Z,8.01
2022-11-06T08:18:03.975Z,8.01
2022-11-06T08:20:52.736Z,8.12
2022-11-06T08:23:38.348Z,8.30
2022-11-06T08:26:23.661Z,8.44
2022-11-06T08:29:09.449Z,8.46
2022-11-06T08:31:55.315Z,8.54
2022-11-06T08:34:42.274Z,8.60
2022-11-06T08:37:27.729Z,8.80
2022-11-06T08:40:13.624Z,8.89
2022-11-06T08:43:04.367Z,8.96
2022-11-06T08:45:50.082Z,8.99
2022-11-06T08:48:35.868Z,9.08
2022-11-06T08:51:21.476Z,9.19
2022-11-06T08:54:07.216Z,9.23
2022-11-06T08:56:52.556Z,9.33
2022-11-06T08:59:38.063Z,9.36
2022-11-06T09:02:23.924Z,9.38
2022-11-06T09:05:10.443Z,9.38
2022-11-06T09:07:56.859Z,9.38
2022-11-06T09:10:43.548Z,9.41
2022-11-06T09:13:29.036Z,9.42
2022-11-06T09:16:16.242Z,9.39
2022-11-06T09:19:01.973Z,9.53
2022-11-06T09:21:53.471Z,9.58
2022-11-06T09:25:01.799Z,9.64
2022-11-06T09:27:57.348Z,9.72
2022-11-06T09:30:44.384Z,9.78
2022-11-06T09:33:29.849Z,9.76
2022-11-06T09:36:15.560Z,9.76
2022-11-06T09:39:00.923Z,9.79
2022-11-06T09:42:02.223Z,9.77
2022-11-06T09:45:04.988Z,9.72
2022-11-06T09:47:59.956Z,9.64
2022-11-06T09:51:02.353Z,9.59
2022-11-06T09:53:54.186Z,9.53
2022-11-06T09:56:42.036Z,9.54
2022-11-06T09:59:27.880Z,9.61
2022-11-06T10:02:56.599Z,9.62
2022-11-06T10:05:43.088Z,9.60
2022-11-06T10:08:30.108Z,9.56
2022-11-06T10:11:15.793Z,9.63
2022-11-06T10:14:07.121Z,9.73
2022-11-06T10:17:13.765Z,9.70
2022-11-06T10:20:12.438Z,9.69
2022-11-06T10:23:04.002Z,9.72
2022-11-06T10:26:12.151Z,9.82
2022-11-06T10:29:09.579Z,9.93
2022-11-06T10:32:19.856Z,10.04
2022-11-06T10:35:37.656Z,10.17
2022-11-06T10:38:30.104Z,10.32
2022-11-06T10:41:26.411Z,10.38
2022-11-06T10:44:26.354Z,10.49
2022-11-06T10:47:23.645Z,10.57
2022-11-06T10:50:14.741Z,10.65
2022-11-06T10:53:21.943Z,10.76
2022-11-06T10:56:14.769Z,10.98
2022-11-06T10:59:05.513Z,11.15
2022-11-06T11:01:51.245Z,11.34
2022-11-06T11:04:36.779Z,11.49
2022-11-06T11:07:23.328Z,11.66
2022-11-06T11:10:23.789Z,11.69
2022-11-06T11:13:20.902Z,11.61
2022-11-06T11:16:40.130Z,11.51
2022-11-06T11:19:45.452Z,11.44
2022-11-06T11:22:33.340Z,11.39
2022-11-06T11:25:25.839Z,11.37
2022-11-06T11:28:36.743Z,11.37
2022-11-06T11:31:30.712Z,11.43
2022-11-06T11:34:28.091Z,11.52
2022-11-06T11:37:33.437Z,11.76
2022-11-06T11:40:45.623Z,12.05
2022-11-06T11:43:33.085Z,12.26
2022-11-06T11:46:20.900Z,12.44
2022-11-06T11:49:33.997Z,12.52
2022-11-06T11:52:21.953Z,12.54
2022-11-06T11:55:16.647Z,12.54
2022-11-06T11:58:02.428Z,12.57
2022-11-06T12:01:09.890Z,12.55
2022-11-06T12:03:55.779Z,12.61
2022-11-06T12:06:57.976Z,12.74
2022-11-06T12:09:45.132Z,12.90
2022-11-06T12:12:33.410Z,13.05
2022-11-06T12:15:22.000Z,13.13
2022-11-06T12:18:13.290Z,13.24
2022-11-06T12:21:07.015Z,13.28
2022-11-06T12:24:02.190Z,13.15
2022-11-06T12:27:25.134Z,13.17
2022-11-06T12:30:19.407Z,12.98
2022-11-06T12:33:12.313Z,12.88
2022-11-06T12:36:20.220Z,12.81
2022-11-06T12:39:23.269Z,12.74
2022-11-06T12:42:12.615Z,12.69
2022-11-06T12:44:58.068Z,12.69
2022-11-06T12:47:43.762Z,12.67
2022-11-06T12:50:58.691Z,12.60
2022-11-06T12:53:53.651Z,12.42
2022-11-06T12:56:53.939Z,12.31
2022-11-06T13:00:07.648Z,12.31
2022-11-06T13:03:04.153Z,12.32
2022-11-06T13:06:31.400Z,12.37
2022-11-06T13:09:32.174Z,12.48
2022-11-06T13:12:35.996Z,12.53
2022-11-06T13:15:30.219Z,12.47
2022-11-06T13:18:24.368Z,12.40
2022-11-06T13:21:25.601Z,12.46
2022-11-06T13:24:19.346Z,12.42
2022-11-06T13:27:19.111Z,12.63
2022-11-06T13:30:14.482Z,12.86
2022-11-06T13:33:22.365Z,13.10
2022-11-06T13:36:08.191Z,13.14
2022-11-06T13:39:03.576Z,13.14
2022-11-06T13:41:49.104Z,13.25
2022-11-06T13:44:35.655Z,13.29
2022-11-06T13:47:47.045Z,13.29
2022-11-06T13:50:47.979Z,13.36
2022-11-06T13:53:42.682Z,13.34
2022-11-06T13:56:47.992Z,13.21
2022-11-06T13:59:39.461Z,13.15
2022-11-06T14:02:52.527Z,12.96
2022-11-06T14:05:55.994Z,12.78
2022-11-06T14:08:49.912Z,12.65
2022-11-06T14:11:39.263Z,12.62
2022-11-06T14:14:27.640Z,12.58
2022-11-06T14:17:13.301Z,12.63
2022-11-06T14:20:25.652Z,12.71
2022-11-06T14:23:29.503Z,12.72
2022-11-06T14:26:40.106Z,12.62
2022-11-06T14:29:28.896Z,12.40
2022-11-06T14:32:21.490Z,12.28
2022-11-06T14:35:29.055Z,12.22
2022-11-06T14:38:30.871Z,12.22
2022-11-06T14:41:35.039Z,12.23
2022-11-06T14:44:20.687Z,12.18
2022-11-06T14:47:09.237Z,12.14
2022-11-06T14:49:57.725Z,12.06
2022-11-06T14:52:47.361Z,11.98
2022-11-06T14:55:42.513Z,11.89
2022-11-06T14:58:33.592Z,11.20
2022-11-06T15:01:32.294Z,10.51
2022-11-06T15:04:21.906Z,9.96
2022-11-06T15:07:11.161Z,9.67
2022-11-06T15:09:56.388Z,9.43
2022-11-06T15:13:18.910Z,9.31
2022-11-06T15:16:11.162Z,9.26
2022-11-06T15:18:56.451Z,9.35
2022-11-06T15:22:02.743Z,9.47
2022-11-06T15:24:54.785Z,9.51
2022-11-06T15:27:45.503Z,9.49
2022-11-06T15:30:40.540Z,9.49
2022-11-06T15:33:34.530Z,9.45
2022-11-06T15:36:21.588Z,9.41
2022-11-06T15:39:29.020Z,9.47
2022-11-06T15:42:18.495Z,9.45
2022-11-06T15:45:15.821Z,9.43
2022-11-06T15:48:04.762Z,9.36
2022-11-06T15:50:50.032Z,9.29
2022-11-06T15:53:40.659Z,9.24
2022-11-06T15:56:32.819Z,9.17
2022-11-06T15:59:18.473Z,9.10
2022-11-06T16:02:16.061Z,9.04
2022-11-06T16:05:03.115Z,8.93
2022-11-06T16:07:50.805Z,8.87
2022-11-06T16:10:37.592Z,8.80
2022-11-06T16:13:25.125Z,8.75
2022-11-06T16:16:37.664Z,8.74
2022-11-06T16:19:35.743Z,8.68
2022-11-06T16:22:29.251Z,8.65
2022-11-06T16:25:19.842Z,8.63
2022-11-06T16:28:15.885Z,8.61
2022-11-06T16:31:16.129Z,8.65
2022-11-06T16:34:04.818Z,8.65
2022-11-06T16:36:59.446Z,8.68
2022-11-06T16:39:50.201Z,8.66
2022-11-06T16:42:36.368Z,8.58
2022-11-06T16:45:22.681Z,8.55
2022-11-06T16:48:08.247Z,8.59
2022-11-06T16:50:59.690Z,8.60
2022-11-06T16:53:55.613Z,8.59
2022-11-06T16:56:41.308Z,8.55
2022-11-06T16:59:26.843Z,8.47
2022-11-06T17:02:23.994Z,8.47
2022-11-06T17:05:14.562Z,8.50
2022-11-06T17:08:18.645Z,8.35
2022-11-06T17:11:13.002Z,8.28
2022-11-06T17:13:58.360Z,8.24
2022-11-06T17:16:53.150Z,8.19
2022-11-06T17:19:38.613Z,8.08
2022-11-06T17:22:26.017Z,8.02
2022-11-06T17:25:11.431Z,7.82
2022-11-06T17:27:57.006Z,7.65
2022-11-06T17:30:42.712Z,7.59
2022-11-06T17:33:28.369Z,7.52
2022-11-06T17:36:21.074Z,7.55
2022-11-06T17:39:07.197Z,7.54
2022-11-06T17:41:53.696Z,7.48
2022-11-06T17:44:39.010Z,7.44
2022-11-06T17:47:24.574Z,7.38
2022-11-06T17:50:10.575Z,7.36
2022-11-06T17:52:56.279Z,7.33
2022-11-06T17:55:41.652Z,7.27
2022-11-06T17:58:27.069Z,7.22
2022-11-06T18:01:12.460Z,7.23
2022-11-06T18:03:58.388Z,7.19
2022-11-06T18:06:45.930Z,7.07
2022-11-06T18:09:31.554Z,7.12
2022-11-06T18:12:17.676Z,6.99
2022-11-06T18:15:03.255Z,7.00
2022-11-06T18:17:48.945Z,6.98
2022-11-06T18:20:34.375Z,6.97
2022-11-06T18:23:19.903Z,7.04
2022-11-06T18:26:06.171Z,7.04
2022-11-06T18:28:51.889Z,7.01
2022-11-06T18:31:37.697Z,7.01
2022-11-06T18:34:23.625Z,7.04
2022-11-06T18:37:09.223Z,7.11
2022-11-06T18:39:54.704Z,7.16
2022-11-06T18:42:40.320Z,7.21
2022-11-06T18:45:25.796Z,7.24
2022-11-06T18:48:11.837Z,7.17
2022-11-06T18:51:06.241Z,7.13
2022-11-06T18:53:56.886Z,7.08
2022-11-06T18:56:42.593Z,7.09
2022-11-06T18:59:29.404Z,6.97
2022-11-06T19:02:14.942Z,7.03
2022-11-06T19:05:01.145Z,6.96
2022-11-06T19:07:51.906Z,6.87
2022-11-06T19:10:39.569Z,6.81
2022-11-06T19:13:25.237Z,6.79
2022-11-06T19:16:12.340Z,6.79
2022-11-06T19:21:48.045Z,6.84
2022-11-06T19:24:33.978Z,6.74
2022-11-06T19:27:19.287Z,6.87
2022-11-06T19:30:04.996Z,6.97
2022-11-06T19:32:50.329Z,6.97
2022-11-06T19:35:35.707Z,6.93
2022-11-06T19:38:22.262Z,6.98
2022-11-06T19:41:07.673Z,6.93
2022-11-06T19:43:52.951Z,6.95
2022-11-06T19:46:38.535Z,6.92
2022-11-06T19:49:24.396Z,6.95
2022-11-06T19:52:42.685Z,7.04
2022-11-06T19:55:27.163Z,7.09
2022-11-06T19:58:13.743Z,7.05
2022-11-06T20:00:59.563Z,7.02
2022-11-06T20:03:45.464Z,6.96
2022-11-06T20:06:31.097Z,6.88
2022-11-06T20:09:16.680Z,6.84
2022-11-06T20:12:04.077Z,6.86
2022-11-06T20:14:50.794Z,6.87
2022-11-06T20:17:36.620Z,6.83
2022-11-06T20:20:22.235Z,6.90
2022-11-06T20:23:08.009Z,6.93
2022-11-06T20:25:54.420Z,6.94
2022-11-06T20:28:40.574Z,6.95
2022-11-06T20:31:27.857Z,6.94
2022-11-06T20:34:13.392Z,6.99
2022-11-06T20:36:58.879Z,6.98
2022-11-06T20:39:45.634Z,6.96
2022-11-06T20:42:31.118Z,6.90
2022-11-06T20:45:16.449Z,6.90
2022-11-06T20:48:01.709Z,6.89
2022-11-06T20:51:00.901Z,6.92
2022-11-06T20:53:47.059Z,6.94
2022-11-06T20:56:32.860Z,7.01
2022-11-06T20:59:18.422Z,6.90
2022-11-06T21:02:04.008Z,6.94
2022-11-06T21:04:49.895Z,7.03
2022-11-06T21:07:35.544Z,7.04
2022-11-06T21:10:21.032Z,7.04
2022-11-06T21:13:06.588Z,7.04
2022-11-06T21:16:07.407Z,6.99
2022-11-06T21:18:53.637Z,6.95
2022-11-06T21:21:39.896Z,6.89
2022-11-06T21:24:25.519Z,6.86
2022-11-06T21:27:11.298Z,6.86
2022-11-06T21:29:58.373Z,6.86
2022-11-06T21:32:43.984Z,6.81
2022-11-06T21:35:29.407Z,6.78
2022-11-06T21:38:14.725Z,6.79
2022-11-06T21:41:00.428Z,6.84
2022-11-06T21:43:48.243Z,6.88
2022-11-06T21:46:34.605Z,6.88
2022-11-06T21:49:20.240Z,6.94
2022-11-06T21:52:29.091Z,6.92
2022-11-06T21:55:33.761Z,6.91
2022-11-06T21:58:19.319Z,6.84
2022-11-06T22:01:06.156Z,6.84
2022-11-06T22:03:52.189Z,6.75
2022-11-06T22:06:40.978Z,6.75
2022-11-06T22:09:26.488Z,6.78
2022-11-06T22:12:11.996Z,6.69
2022-11-06T22:14:57.407Z,6.86
2022-11-06T22:17:42.808Z,6.93
2022-11-06T22:20:28.218Z,6.92
2022-11-06T22:23:13.743Z,6.94
2022-11-06T22:25:59.587Z,6.95
2022-11-06T22:28:45.820Z,6.93
2022-11-06T22:31:31.655Z,6.86
2022-11-06T22:34:17.409Z,6.78
2022-11-06T22:37:02.846Z,6.74
2022-11-06T22:39:49.360Z,6.74
2022-11-06T22:42:34.831Z,6.79
2022-11-06T22:45:20.327Z,6.93
2022-11-06T22:48:06.349Z,6.96
2022-11-06T22:50:51.695Z,6.93
2022-11-06T22:53:37.174Z,6.91
2022-11-06T22:56:25.092Z,6.89
2022-11-06T22:59:12.072Z,6.90
2022-11-06T23:01:57.707Z,6.77
2022-11-06T23:04:43.071Z,6.75
2022-11-06T23:07:28.536Z,6.66
2022-11-06T23:10:13.951Z,6.58
2022-11-06T23:12:59.273Z,6.49
2022-11-06T23:15:44.703Z,6.47
2022-11-06T23:18:30.246Z,6.47
2022-11-06T23:21:18.919Z,6.49
2022-11-06T23:24:06.168Z,6.39
2022-11-06T23:26:51.865Z,6.33
2022-11-06T23:29:37.407Z,6.38
2022-11-06T23:32:23.201Z,6.36
2022-11-06T23:35:13.715Z,6.34
2022-11-06T23:38:00.434Z,6.34
2022-11-06T23:40:45.924Z,6.39
2022-11-06T23:43:31.139Z,6.41
2022-11-06T23:46:21.533Z,6.41
2022-11-06T23:49:07.174Z,6.46
2022-11-06T23:51:52.798Z,6.47
2022-11-06T23:54:38.326Z,6.55
2022-11-06T23:57:24.258Z,6.57
